Enchantment of the Seas — C6FZ7 — position and weather

sailwx.info

Track history (hours):
 
Tides and Currents Weather Stations Pressure Air Temp Water Temp Dewpoint Dewpoint Depression Visibility Wind Speed Wind Dir Waves Ship Positions

Enchantment of the Seas (Bahamas)

Last reported at 2016-Jul-26 02:04 UTC. Time now 2016-Jul-27 01:09 UTC.
Position N 26°10' W 079°22'.

Type: Passenger vessel. MMSI: 311733000.

Date/timePositionNaut miles runAvg speedWind from/ knotsBaromVisibWave heightAir tempDewpointWater temp
2016-Jul-26 02:04N 26°10' W 079°22'5 9.5
2016-Jul-26 01:33N 26°08' W 079°26'9 9.5
2016-Jul-26 00:33N 26°03' W 079°35'10 9.6
2016-Jul-25 23:33N 25°57' W 079°44'1010.0
2016-Jul-25 22:33N 25°52' W 079°54'10 9.6
2016-Jul-25 21:33N 25°47' W 080°03'7 7.3
2016-Jul-25 20:33N 25°47' W 080°11'0 0.2
2016-Jul-25 19:24N 25°47' W 080°11'0 0.0
2016-Jul-25 18:30N 25°47' W 080°11'0 0.0
2016-Jul-25 17:30N 25°47' W 080°11'0 0.0
2016-Jul-25 15:30N 25°47' W 080°11'0 0.0
2016-Jul-25 14:33N 25°47' W 080°11'0 0.0
2016-Jul-25 13:30N 25°47' W 080°11'0 0.0
2016-Jul-25 12:33N 25°47' W 080°11'  
2016-Jul-23 02:24N 26°11' W 079°20'8 9.4
2016-Jul-23 01:33N 26°07' W 079°27'10 9.8
2016-Jul-23 00:33N 26°02' W 079°36'10 9.8
2016-Jul-22 23:33N 25°56' W 079°45'9 9.1
2016-Jul-22 22:34N 25°52' W 079°54'10 9.5
2016-Jul-22 21:33N 25°47' W 080°03'7 5.7
2016-Jul-22 20:25N 25°47' W 080°11'0 0.0
2016-Jul-22 19:13N 25°47' W 080°11'0 0.0
2016-Jul-22 18:25N 25°47' W 080°11'0 0.0
2016-Jul-22 16:31N 25°47' W 080°11'0 0.0
2016-Jul-22 15:13N 25°47' W 080°11'0 0.0
2016-Jul-22 14:19N 25°47' W 080°11'0 0.0
2016-Jul-22 13:31N 25°47' W 080°11'0 0.0
2016-Jul-22 11:31N 25°47' W 080°11'0 0.2
2016-Jul-22 10:33N 25°47' W 080°11'7 7.1
2016-Jul-22 09:33N 25°47' W 080°03'  
2016-Jul-19 00:33N 26°10' W 079°23'1515.5
2016-Jul-18 23:33N 26°01' W 079°37'1515.4
2016-Jul-18 22:33N 25°54' W 079°52'1413.5
2016-Jul-18 21:34N 25°46' W 080°04'2 0.2
2016-Jul-18 09:33N 25°47' W 080°02'1514.9
2016-Jul-18 08:34N 25°55' W 079°48'1212.4
2016-Jul-18 07:34N 26°02' W 079°37'  
Track history (hours):
 
Tides and Currents Weather Stations Pressure Air Temp Water Temp Dewpoint Dewpoint Depression Visibility Wind Speed Wind Dir Waves Ship Positions

Enchantment of the Seas (Bahamas)

Last reported at 2016-Jul-26 02:04 UTC. Time now 2016-Jul-27 01:09 UTC.
Position N 26°10' W 079°22'.

Type: Passenger vessel. MMSI: 311733000.

Date/timePositionNaut miles runAvg speedWind from/ knotsBaromVisibWave heightAir tempDewpointWater temp
2016-Jul-26 02:04N 26°10' W 079°22'5 9.5
2016-Jul-26 01:33N 26°08' W 079°26'9 9.5
2016-Jul-26 00:33N 26°03' W 079°35'10 9.6
2016-Jul-25 23:33N 25°57' W 079°44'1010.0
2016-Jul-25 22:33N 25°52' W 079°54'10 9.6
2016-Jul-25 21:33N 25°47' W 080°03'7 7.3
2016-Jul-25 20:33N 25°47' W 080°11'0 0.2
2016-Jul-25 19:24N 25°47' W 080°11'0 0.0
2016-Jul-25 18:30N 25°47' W 080°11'0 0.0
2016-Jul-25 17:30N 25°47' W 080°11'0 0.0
2016-Jul-25 15:30N 25°47' W 080°11'0 0.0
2016-Jul-25 14:33N 25°47' W 080°11'0 0.0
2016-Jul-25 13:30N 25°47' W 080°11'0 0.0
2016-Jul-25 12:33N 25°47' W 080°11'  
2016-Jul-23 02:24N 26°11' W 079°20'8 9.4
2016-Jul-23 01:33N 26°07' W 079°27'10 9.8
2016-Jul-23 00:33N 26°02' W 079°36'10 9.8
2016-Jul-22 23:33N 25°56' W 079°45'9 9.1
2016-Jul-22 22:34N 25°52' W 079°54'10 9.5
2016-Jul-22 21:33N 25°47' W 080°03'7 5.7
2016-Jul-22 20:25N 25°47' W 080°11'0 0.0
2016-Jul-22 19:13N 25°47' W 080°11'0 0.0
2016-Jul-22 18:25N 25°47' W 080°11'0 0.0
2016-Jul-22 16:31N 25°47' W 080°11'0 0.0
2016-Jul-22 15:13N 25°47' W 080°11'0 0.0
2016-Jul-22 14:19N 25°47' W 080°11'0 0.0
2016-Jul-22 13:31N 25°47' W 080°11'0 0.0
2016-Jul-22 11:31N 25°47' W 080°11'0 0.2
2016-Jul-22 10:33N 25°47' W 080°11'7 7.1
2016-Jul-22 09:33N 25°47' W 080°03'  
2016-Jul-19 00:33N 26°10' W 079°23'1515.5
2016-Jul-18 23:33N 26°01' W 079°37'1515.4
2016-Jul-18 22:33N 25°54' W 079°52'1413.5
2016-Jul-18 21:34N 25°46' W 080°04'2 0.2
2016-Jul-18 09:33N 25°47' W 080°02'1514.9
2016-Jul-18 08:34N 25°55' W 079°48'1212.4
2016-Jul-18 07:34N 26°02' W 079°37'  

Dump ship's entire track history